createdAt,value
2023-02-16T06:32:57.767Z,100746.23
2023-02-16T06:35:28.214Z,100746.18
2023-02-16T06:37:55.278Z,100742.20
2023-02-16T06:40:24.938Z,100740.98
2023-02-16T06:42:52.847Z,100736.02
2023-02-16T06:45:22.163Z,100731.71
2023-02-16T06:47:49.352Z,100732.38
2023-02-16T06:50:17.399Z,100730.38
2023-02-16T06:52:45.496Z,100731.91
2023-02-16T06:55:12.546Z,100732.85
2023-02-16T06:57:41.523Z,100731.86
2023-02-16T07:00:10.187Z,100726.09
2023-02-16T07:02:37.341Z,100725.30
2023-02-16T07:05:05.285Z,100723.30
2023-02-16T07:07:33.338Z,100721.45
2023-02-16T07:10:03.551Z,100717.82
2023-02-16T07:12:32.197Z,100717.58
2023-02-16T07:15:09.820Z,100715.00
2023-02-16T07:17:40.898Z,100709.58
2023-02-16T07:20:09.025Z,100709.59
2023-02-16T07:22:35.995Z,100709.98
2023-02-16T07:25:03.833Z,100710.92
2023-02-16T07:27:30.999Z,100709.02
2023-02-16T07:30:00.171Z,100712.46
2023-02-16T07:32:29.605Z,100711.48
2023-02-16T07:37:56.934Z,100703.54
2023-02-16T07:40:30.238Z,100698.55
2023-02-16T07:43:12.619Z,100693.93
2023-02-16T07:45:53.624Z,100694.73
2023-02-16T07:48:24.776Z,100689.83
2023-02-16T07:50:53.728Z,100686.32
2023-02-16T07:53:22.210Z,100686.27
2023-02-16T07:55:52.275Z,100682.94
2023-02-16T07:58:30.491Z,100682.19
2023-02-16T08:01:10.258Z,100684.41
2023-02-16T08:03:40.448Z,100683.90
2023-02-16T08:06:09.720Z,100679.48
2023-02-16T08:08:37.811Z,100675.61
2023-02-16T08:11:19.093Z,100675.67
2023-02-16T08:13:47.827Z,100671.05
2023-02-16T08:16:40.860Z,100670.11
2023-02-16T08:19:13.063Z,100666.45
2023-02-16T08:21:47.982Z,100665.33
2023-02-16T08:24:16.846Z,100662.39
2023-02-16T08:26:49.311Z,100662.73
2023-02-16T08:29:19.573Z,100660.64
2023-02-16T08:31:49.681Z,100655.90
2023-02-16T08:34:18.960Z,100657.64
2023-02-16T08:36:58.417Z,100655.09
2023-02-16T08:39:27.745Z,100653.23
2023-02-16T08:41:55.016Z,100654.31
2023-02-16T08:44:23.164Z,100653.76
2023-02-16T08:46:57.253Z,100657.44
2023-02-16T08:49:32.789Z,100659.05
2023-02-16T08:52:01.934Z,100657.30
2023-02-16T08:54:30.305Z,100655.88
2023-02-16T08:57:04.591Z,100653.64
2023-02-16T08:59:33.171Z,100653.92
2023-02-16T09:02:11.793Z,100656.35
2023-02-16T09:04:39.160Z,100656.73
2023-02-16T09:07:07.800Z,100649.87
2023-02-16T09:09:35.474Z,100647.98
2023-02-16T09:12:07.430Z,100646.77
2023-02-16T09:14:38.634Z,100639.71
2023-02-16T09:17:06.115Z,100634.16
2023-02-16T09:19:36.229Z,100634.30
2023-02-16T09:22:18.185Z,100630.08
2023-02-16T09:24:50.285Z,100631.64
2023-02-16T09:27:17.660Z,100628.21
2023-02-16T09:29:58.801Z,100629.61
2023-02-16T09:32:30.357Z,100623.60
2023-02-16T09:35:04.172Z,100620.77
2023-02-16T09:37:32.789Z,100616.30
2023-02-16T09:40:31.791Z,100617.52
2023-02-16T09:43:10.027Z,100615.28
2023-02-16T09:45:44.195Z,100616.52
2023-02-16T09:48:30.032Z,100609.08
2023-02-16T09:51:01.651Z,100602.39
2023-02-16T09:53:42.432Z,100603.39
2023-02-16T09:56:30.196Z,100600.53
2023-02-16T09:59:10.790Z,100603.91
2023-02-16T10:01:51.627Z,100601.03
2023-02-16T10:05:00.444Z,100601.63
2023-02-16T10:07:54.346Z,100595.05
2023-02-16T10:10:23.583Z,100591.72
2023-02-16T10:13:11.365Z,100588.39
2023-02-16T10:15:43.550Z,100587.75
2023-02-16T10:18:36.255Z,100584.29
2023-02-16T10:21:07.252Z,100581.45
2023-02-16T10:23:45.368Z,100578.34
2023-02-16T10:26:41.782Z,100574.63
2023-02-16T10:29:13.703Z,100572.20
2023-02-16T10:31:44.084Z,100569.63
2023-02-16T10:34:14.170Z,100558.81
2023-02-16T10:37:53.341Z,100559.55
2023-02-16T10:41:08.870Z,100550.98
2023-02-16T10:43:55.212Z,100547.07
2023-02-16T10:46:25.238Z,100538.17
2023-02-16T10:48:55.161Z,100544.39
2023-02-16T10:51:27.606Z,100541.91
2023-02-16T10:54:01.795Z,100542.13
2023-02-16T10:56:46.133Z,100539.56
2023-02-16T10:59:20.820Z,100534.84
2023-02-16T11:02:02.335Z,100536.41
2023-02-16T11:04:36.074Z,100529.06
2023-02-16T11:07:12.154Z,100530.02
2023-02-16T11:09:56.751Z,100525.83
2023-02-16T11:12:26.532Z,100526.98
2023-02-16T11:15:19.618Z,100521.67
2023-02-16T11:18:08.043Z,100517.57
2023-02-16T11:20:47.801Z,100515.71
2023-02-16T11:23:25.483Z,100510.49
2023-02-16T11:26:05.800Z,100504.57
2023-02-16T11:28:48.634Z,100497.55
2023-02-16T11:31:54.540Z,100490.48
2023-02-16T11:34:45.379Z,100492.02
2023-02-16T11:37:31.809Z,100487.38
2023-02-16T11:40:26.209Z,100479.35
2023-02-16T11:42:56.980Z,100480.23
2023-02-16T11:45:34.947Z,100472.50
2023-02-16T11:48:14.146Z,100466.70
2023-02-16T11:51:02.577Z,100460.92
2023-02-16T11:53:34.780Z,100460.15
2023-02-16T11:56:23.573Z,100452.02
2023-02-16T11:59:17.706Z,100448.02
2023-02-16T12:02:17.547Z,100442.62
2023-02-16T12:05:29.074Z,100433.20
2023-02-16T12:08:15.706Z,100431.77
2023-02-16T12:11:31.843Z,100426.90
2023-02-16T12:14:51.767Z,100425.41
2023-02-16T12:18:01.452Z,100416.80
2023-02-16T12:20:51.871Z,100413.30
2023-02-16T12:23:47.976Z,100411.55
2023-02-16T12:26:49.457Z,100404.70
2023-02-16T12:29:35.749Z,100400.04
2023-02-16T12:32:24.252Z,100400.48
2023-02-16T12:35:09.134Z,100404.23
2023-02-16T12:37:52.047Z,100398.39
2023-02-16T12:40:49.112Z,100394.70
2023-02-16T12:43:44.953Z,100393.01
2023-02-16T12:46:40.071Z,100388.10
2023-02-16T12:49:13.325Z,100392.52
2023-02-16T12:52:22.863Z,100385.90
2023-02-16T12:55:01.614Z,100379.56
2023-02-16T12:57:33.138Z,100372.91
2023-02-16T13:00:32.105Z,100375.39
2023-02-16T13:03:29.051Z,100373.83
2023-02-16T13:06:19.080Z,100373.66
2023-02-16T13:09:24.322Z,100370.58
2023-02-16T13:11:51.781Z,100369.90
2023-02-16T13:14:25.900Z,100375.58
2023-02-16T13:17:05.154Z,100369.95
2023-02-16T13:19:47.487Z,100371.43
2023-02-16T13:23:01.598Z,100364.18
2023-02-16T13:26:00.068Z,100361.59
2023-02-16T13:28:47.404Z,100358.17
2023-02-16T13:31:23.110Z,100359.44
2023-02-16T13:34:07.461Z,100359.83
2023-02-16T13:37:11.729Z,100348.65
2023-02-16T13:40:16.397Z,100351.26
2023-02-16T13:43:13.526Z,100342.43
2023-02-16T13:45:42.312Z,100344.39
2023-02-16T13:48:27.780Z,100342.20
2023-02-16T13:51:01.164Z,100344.50
2023-02-16T13:53:39.580Z,100338.72
2023-02-16T13:56:35.746Z,100334.89
2023-02-16T13:59:18.248Z,100328.02
2023-02-16T14:01:47.149Z,100327.48
2023-02-16T14:04:23.521Z,100319.03
2023-02-16T14:07:46.755Z,100315.02
2023-02-16T14:10:19.461Z,100315.85
2023-02-16T14:13:13.421Z,100317.25
2023-02-16T14:15:51.638Z,100314.15
2023-02-16T14:18:32.329Z,100314.52
2023-02-16T14:21:03.189Z,100311.09
2023-02-16T14:23:34.761Z,100313.77
2023-02-16T14:26:09.627Z,100312.27
2023-02-16T14:28:59.482Z,100305.13
2023-02-16T14:31:29.745Z,100302.12
2023-02-16T14:34:05.164Z,100307.98
2023-02-16T14:36:33.053Z,100308.65
2023-02-16T14:39:02.886Z,100298.86
2023-02-16T14:41:34.276Z,100295.29
2023-02-16T14:44:24.885Z,100295.06
2023-02-16T14:47:13.911Z,100289.52
2023-02-16T14:50:03.050Z,100280.40
2023-02-16T14:52:41.341Z,100276.17
2023-02-16T14:55:22.958Z,100270.42
2023-02-16T14:58:31.336Z,100266.84
2023-02-16T15:01:09.744Z,100269.09
2023-02-16T15:03:41.330Z,100266.49
2023-02-16T15:06:17.511Z,100266.96
2023-02-16T15:09:04.862Z,100267.69
2023-02-16T15:12:21.337Z,100263.23
2023-02-16T15:14:59.741Z,100265.66
2023-02-16T15:17:41.477Z,100264.45
2023-02-16T15:20:46.540Z,100262.98
2023-02-16T15:23:20.324Z,100263.09
2023-02-16T15:25:58.784Z,100263.70
2023-02-16T15:28:30.246Z,100262.21
2023-02-16T15:31:00.812Z,100254.23
2023-02-16T15:33:37.170Z,100254.02
2023-02-16T15:36:15.255Z,100254.11
2023-02-16T15:38:54.895Z,100253.98
2023-02-16T15:41:31.120Z,100251.40
2023-02-16T15:43:58.755Z,100246.75
2023-02-16T15:46:29.699Z,100248.10
2023-02-16T15:48:56.956Z,100244.89
2023-02-16T15:51:32.527Z,100247.32
2023-02-16T15:54:24.142Z,100246.56
2023-02-16T15:56:58.469Z,100244.05
2023-02-16T15:59:32.019Z,100247.23
2023-02-16T16:02:08.487Z,100243.29
2023-02-16T16:04:39.577Z,100239.13
2023-02-16T16:07:11.680Z,100237.48
2023-02-16T16:09:39.802Z,100235.05
2023-02-16T16:12:15.941Z,100233.52
2023-02-16T16:14:56.457Z,100231.10
2023-02-16T16:17:38.137Z,100230.67
2023-02-16T16:20:25.407Z,100226.40
2023-02-16T16:23:18.806Z,100221.71
2023-02-16T16:25:50.335Z,100216.83
2023-02-16T16:28:27.297Z,100218.33
2023-02-16T16:31:16.712Z,100217.13
2023-02-16T16:34:09.699Z,100217.36
2023-02-16T16:36:47.455Z,100215.63
2023-02-16T16:39:17.169Z,100209.18
2023-02-16T16:42:07.427Z,100206.30
2023-02-16T16:44:54.322Z,100200.21
2023-02-16T16:47:30.920Z,100200.06
2023-02-16T16:50:24.076Z,100199.36
2023-02-16T16:52:54.542Z,100193.23
2023-02-16T16:55:35.135Z,100193.28
2023-02-16T16:58:09.718Z,100196.09
2023-02-16T17:00:39.372Z,100191.71
2023-02-16T17:03:09.141Z,100187.53
2023-02-16T17:05:37.816Z,100192.84
2023-02-16T17:08:05.873Z,100186.67
2023-02-16T17:10:38.624Z,100189.62
2023-02-16T17:13:06.863Z,100182.48
2023-02-16T17:15:41.631Z,100178.15
2023-02-16T17:18:18.029Z,100173.98
2023-02-16T17:20:46.228Z,100168.98
2023-02-16T17:23:52.605Z,100167.11
2023-02-16T17:26:40.648Z,100163.26
2023-02-16T17:29:12.098Z,100163.83
2023-02-16T17:31:52.009Z,100162.30
2023-02-16T17:34:31.454Z,100159.86
2023-02-16T17:37:19.653Z,100156.67
2023-02-16T17:40:01.102Z,100152.48
2023-02-16T17:42:28.438Z,100149.42
2023-02-16T17:45:00.323Z,100149.70
2023-02-16T17:47:30.298Z,100147.15
2023-02-16T17:49:58.858Z,100147.48
2023-02-16T17:52:34.368Z,100142.92
2023-02-16T17:55:07.735Z,100139.48
2023-02-16T17:57:41.812Z,100137.55
2023-02-16T18:00:17.445Z,100139.00
2023-02-16T18:02:48.674Z,100131.88
2023-02-16T18:05:18.603Z,100128.59
2023-02-16T18:07:48.464Z,100129.44
2023-02-16T18:14:39.325Z,100125.45
2023-02-16T18:17:10.040Z,100119.16
2023-02-16T18:19:40.600Z,100114.67
2023-02-16T18:22:10.668Z,100111.98
2023-02-16T18:24:42.679Z,100108.77
2023-02-16T18:27:11.793Z,100110.61
2023-02-16T18:29:42.452Z,100106.69
2023-02-16T18:32:13.514Z,100101.71
2023-02-16T18:34:42.109Z,100101.08
2023-02-16T18:37:09.089Z,100100.91
2023-02-16T18:39:42.675Z,100098.14
2023-02-16T18:42:10.816Z,100096.91
2023-02-16T18:44:53.194Z,100094.65
2023-02-16T18:47:53.222Z,100097.31
2023-02-16T18:50:22.727Z,100095.13
2023-02-16T18:52:53.396Z,100094.27
2023-02-16T18:55:32.331Z,100095.13
2023-02-16T18:58:28.803Z,100093.79
2023-02-16T19:00:59.062Z,100085.56
2023-02-16T19:03:39.373Z,100082.30
2023-02-16T19:06:08.858Z,100083.42
2023-02-16T19:08:37.595Z,100079.77
2023-02-16T19:11:06.579Z,100075.76
2023-02-16T19:13:41.484Z,100072.42
2023-02-16T19:16:11.453Z,100067.40
2023-02-16T19:18:39.316Z,100066.05
2023-02-16T19:21:08.413Z,100061.44
2023-02-16T19:23:42.864Z,100060.48
2023-02-16T19:26:12.136Z,100056.09
2023-02-16T19:28:40.286Z,100051.88
2023-02-16T19:31:15.098Z,100049.58
2023-02-16T19:33:47.218Z,100046.53
2023-02-16T19:36:14.266Z,100045.75
2023-02-16T19:38:44.923Z,100039.00
2023-02-16T19:41:28.053Z,100038.48
2023-02-16T19:43:56.738Z,100036.73
2023-02-16T19:46:24.397Z,100032.92
2023-02-16T19:48:56.946Z,100030.87
2023-02-16T19:51:25.042Z,100027.50
2023-02-16T19:53:55.580Z,100025.67
2023-02-16T19:56:24.383Z,100022.20
2023-02-16T19:58:51.788Z,100020.98
2023-02-16T20:01:23.654Z,100015.72
2023-02-16T20:03:52.081Z,100010.62
2023-02-16T20:06:29.686Z,100004.92
2023-02-16T20:09:01.518Z,99998.96
2023-02-16T20:11:32.128Z,99998.95
2023-02-16T20:13:59.794Z,99993.33
2023-02-16T20:16:27.685Z,99990.39
2023-02-16T20:18:56.423Z,99982.59
2023-02-16T20:21:29.527Z,99983.70
2023-02-16T20:24:00.591Z,99975.73
2023-02-16T20:26:29.665Z,99974.57
2023-02-16T20:28:57.689Z,99971.42
2023-02-16T20:31:38.980Z,99971.80
2023-02-16T20:34:06.883Z,99970.14
2023-02-16T20:36:34.993Z,99972.23
2023-02-16T20:39:05.328Z,99971.96
2023-02-16T20:41:32.663Z,99971.58
2023-02-16T20:44:03.558Z,99966.33
2023-02-16T20:46:31.267Z,99963.67
2023-02-16T20:49:00.446Z,99959.45
2023-02-16T20:51:28.051Z,99958.27
2023-02-16T20:53:55.386Z,99957.46
2023-02-16T20:56:23.540Z,99956.56
2023-02-16T20:58:57.509Z,99953.23
2023-02-16T21:01:30.208Z,99950.34
2023-02-16T21:03:57.985Z,99952.74
2023-02-16T21:06:29.331Z,99951.20
2023-02-16T21:08:58.045Z,99943.59
2023-02-16T21:11:26.870Z,99944.64
2023-02-16T21:13:57.486Z,99937.05
2023-02-16T21:16:27.122Z,99934.86
2023-02-16T21:18:55.811Z,99932.86
2023-02-16T21:21:23.944Z,99928.10
2023-02-16T21:23:54.729Z,99920.17
2023-02-16T21:26:24.396Z,99919.32
2023-02-16T21:28:51.600Z,99918.36
2023-02-16T21:31:21.302Z,99910.49
2023-02-16T21:33:51.223Z,99910.87
2023-02-16T21:36:21.008Z,99905.77
2023-02-16T21:38:51.666Z,99902.81
2023-02-16T21:41:27.310Z,99898.80
2023-02-16T21:44:09.020Z,99893.05
2023-02-16T21:46:40.255Z,99891.61
2023-02-16T21:49:18.876Z,99891.00
2023-02-16T21:51:48.122Z,99891.02
2023-02-16T21:54:43.947Z,99885.54
2023-02-16T21:57:11.243Z,99884.28
2023-02-16T21:59:38.486Z,99882.69
2023-02-16T22:02:09.557Z,99881.34
2023-02-16T22:04:39.180Z,99881.98
2023-02-16T22:07:10.563Z,99878.43
2023-02-16T22:09:45.979Z,99871.35
2023-02-16T22:12:18.198Z,99873.30
2023-02-16T22:14:46.299Z,99869.10
2023-02-16T22:17:13.989Z,99871.92
2023-02-16T22:19:42.411Z,99870.49
2023-02-16T22:22:13.052Z,99870.20
2023-02-16T22:24:41.747Z,99863.29
2023-02-16T22:27:09.313Z,99863.73
2023-02-16T22:29:37.575Z,99857.43
2023-02-16T22:32:05.062Z,99858.18
2023-02-16T22:34:34.820Z,99856.66
2023-02-16T22:37:01.890Z,99854.16
2023-02-16T22:39:36.097Z,99854.57
2023-02-16T22:42:03.933Z,99850.38
2023-02-16T22:44:33.355Z,99849.58
2023-02-16T22:47:00.930Z,99849.59
2023-02-16T22:49:31.216Z,99843.55
2023-02-16T22:51:58.832Z,99839.69
2023-02-16T22:54:33.247Z,99839.43
2023-02-16T22:57:02.276Z,99837.24
2023-02-16T22:59:30.092Z,99835.86
2023-02-16T23:01:57.636Z,99836.09
2023-02-16T23:04:24.654Z,99834.81
2023-02-16T23:06:51.937Z,99833.63
2023-02-16T23:09:24.114Z,99828.98
2023-02-16T23:11:52.381Z,99830.77
2023-02-16T23:14:20.221Z,99829.59
2023-02-16T23:16:50.172Z,99830.14
2023-02-16T23:19:20.263Z,99824.43
2023-02-16T23:21:49.700Z,99823.79
2023-02-16T23:24:18.516Z,99826.05
2023-02-16T23:26:46.073Z,99823.11
2023-02-16T23:29:18.232Z,99824.67
2023-02-16T23:31:47.746Z,99816.73
2023-02-16T23:34:14.879Z,99817.95
2023-02-16T23:36:44.657Z,99817.20
2023-02-16T23:39:16.696Z,99811.48
2023-02-16T23:41:44.764Z,99809.51
2023-02-16T23:44:12.852Z,99810.36
2023-02-16T23:46:39.832Z,99811.23
2023-02-16T23:49:06.884Z,99810.14
2023-02-16T23:51:35.241Z,99805.29
2023-02-16T23:54:02.651Z,99804.02
2023-02-16T23:56:38.175Z,99805.09
2023-02-16T23:59:06.022Z,99800.86
